EmailTwitter


Observations de surface / Royaume-Uni / EGLL (03772)

Régions: Québec | Canada | États-Unis | Europe | France | UK | Ailleurs
Station
Affichage
Infos & localisation pour EGLL (03772) | Aide pour décoder les METARs

Observations prises le 2017-08-17 à 03H20 UTC à LONDON/HEATHROW, UK (EGLL)

Etat du ciel: couvert.

Obstacle(s) à la visibilité: faible pluie.

Température: 17.0 Celsius

Point de rosée: 16.0 Celsius

Humidité relative: 94%

Indice Humidex: 22.

Vents: Sud-sud-ouest à 15 km/h ou 8 noeuds.

Pression au niveau moyen de la mer: 101.10 kilopascals.

Visibilité horizontale: 6.21 milles terrestres ou 9.94 kilomètres.

Hauteur du plafond: 183 mètres ( 600 pieds ).

Observation METAR:

EGLL 170320Z AUTO 20008KT 9999 -RA OVC006/// //////TCU 17/16 Q1011=